createdAt,value
2016-06-26T00:00:24.304Z,71.83
2016-06-26T00:01:24.297Z,71.73
2016-06-26T00:02:24.290Z,71.92
2016-06-26T00:03:24.283Z,71.92
2016-06-26T00:04:24.285Z,71.92
2016-06-26T00:05:24.289Z,71.92
2016-06-26T00:06:24.319Z,71.73
2016-06-26T00:07:24.306Z,71.92
2016-06-26T00:08:24.291Z,71.83
2016-06-26T00:09:24.295Z,71.73
2016-06-26T00:10:24.301Z,71.83
2016-06-26T00:11:24.282Z,71.73
2016-06-26T00:12:24.514Z,71.83
2016-06-26T00:13:24.286Z,71.73
2016-06-26T00:14:24.293Z,71.92
2016-06-26T00:15:24.484Z,71.83
2016-06-26T00:16:24.287Z,71.73
2016-06-26T00:17:24.284Z,71.83
2016-06-26T00:18:24.286Z,71.73
2016-06-26T00:19:24.282Z,71.92
2016-06-26T00:20:24.281Z,71.92
2016-06-26T00:21:24.278Z,71.83
2016-06-26T00:22:24.284Z,71.83
2016-06-26T00:23:24.278Z,71.54
2016-06-26T00:24:24.274Z,71.92
2016-06-26T00:25:24.305Z,71.92
2016-06-26T00:26:24.490Z,71.83
2016-06-26T00:27:24.269Z,71.73
2016-06-26T00:28:24.280Z,71.83
2016-06-26T00:29:24.269Z,71.83
2016-06-26T00:30:24.269Z,72.12
2016-06-26T00:31:24.271Z,72.02
2016-06-26T00:32:24.288Z,71.44
2016-06-26T00:33:24.269Z,71.44
2016-06-26T00:34:24.278Z,72.02
2016-06-26T00:35:24.286Z,71.73
2016-06-26T00:36:24.271Z,72.12
2016-06-26T00:37:24.269Z,71.44
2016-06-26T00:38:24.279Z,71.44
2016-06-26T00:39:24.266Z,71.34
2016-06-26T00:40:24.274Z,71.34
2016-06-26T00:41:24.478Z,71.54
2016-06-26T00:42:24.474Z,71.34
2016-06-26T00:43:24.267Z,71.34
2016-06-26T00:44:24.264Z,71.44
2016-06-26T00:45:24.270Z,71.54
2016-06-26T00:46:24.271Z,71.44
2016-06-26T00:47:24.260Z,71.34
2016-06-26T00:48:24.471Z,71.25
2016-06-26T00:49:24.270Z,71.34
2016-06-26T00:50:24.270Z,71.34
2016-06-26T00:51:24.267Z,71.44
2016-06-26T00:52:24.270Z,71.34
2016-06-26T00:53:24.461Z,71.34
2016-06-26T00:54:24.262Z,71.73
2016-06-26T00:55:24.471Z,72.12
2016-06-26T00:56:24.254Z,72.02
2016-06-26T00:57:24.258Z,72.02
2016-06-26T00:58:24.266Z,71.92
2016-06-26T00:59:24.260Z,72.02
2016-06-26T01:00:24.256Z,71.83
2016-06-26T01:01:24.257Z,71.83
2016-06-26T01:02:24.463Z,71.83
2016-06-26T01:03:24.258Z,71.83
2016-06-26T01:04:24.255Z,71.64
2016-06-26T01:05:24.251Z,71.83
2016-06-26T01:06:24.442Z,71.92
2016-06-26T01:07:24.281Z,72.02
2016-06-26T01:08:24.249Z,71.73
2016-06-26T01:09:24.248Z,71.6
2016-06-26T01:10:24.260Z,71.54
2016-06-26T01:11:24.246Z,71.64
2016-06-26T01:12:24.247Z,71.92
2016-06-26T01:13:24.256Z,71.7
2016-06-26T01:14:24.246Z,71.73
2016-06-26T01:15:24.239Z,71.89
2016-06-26T01:16:24.245Z,71.89
2016-06-26T01:17:24.250Z,71.7
2016-06-26T01:18:24.255Z,71.79
2016-06-26T01:19:24.246Z,71.79
2016-06-26T01:20:24.245Z,71.79
2016-06-26T01:21:24.244Z,71.6
2016-06-26T01:22:24.232Z,71.89
2016-06-26T01:23:24.232Z,71.83
2016-06-26T01:24:24.247Z,71.79
2016-06-26T01:25:24.241Z,71.89
2016-06-26T01:26:24.241Z,71.7
2016-06-26T01:27:24.258Z,71.7
2016-06-26T01:28:24.235Z,71.7
2016-06-26T01:29:24.237Z,71.89
2016-06-26T01:30:24.232Z,71.89
2016-06-26T01:31:24.437Z,71.79
2016-06-26T01:32:24.250Z,72.18
2016-06-26T01:33:24.245Z,71.7
2016-06-26T01:34:24.236Z,71.79
2016-06-26T01:35:24.227Z,71.89
2016-06-26T01:36:24.234Z,71.7
2016-06-26T01:37:24.237Z,72.27
2016-06-26T01:38:24.230Z,71.79
2016-06-26T01:39:24.227Z,71.98
2016-06-26T01:40:24.232Z,71.89
2016-06-26T01:41:24.228Z,71.7
2016-06-26T01:42:24.225Z,71.79
2016-06-26T01:43:24.218Z,71.98
2016-06-26T01:44:24.222Z,71.7
2016-06-26T01:45:24.221Z,71.79
2016-06-26T01:46:24.217Z,71.79
2016-06-26T01:47:24.218Z,72.08
2016-06-26T01:48:24.213Z,71.98
2016-06-26T01:49:24.220Z,71.98
2016-06-26T01:50:24.218Z,71.98
2016-06-26T01:51:24.213Z,71.89
2016-06-26T01:52:24.232Z,71.98
2016-06-26T01:53:24.219Z,71.89
2016-06-26T01:54:24.216Z,71.98
2016-06-26T01:55:24.238Z,71.98
2016-06-26T01:56:24.203Z,71.7
2016-06-26T01:57:24.217Z,71.7
2016-06-26T01:58:24.403Z,71.79
2016-06-26T01:59:24.618Z,71.7
2016-06-26T02:00:24.410Z,72.08
2016-06-26T02:01:24.204Z,71.5
2016-06-26T02:02:24.202Z,71.41
2016-06-26T02:03:24.203Z,71.41
2016-06-26T02:04:24.206Z,71.6
2016-06-26T02:05:24.201Z,71.22
2016-06-26T02:06:24.202Z,71.31
2016-06-26T02:07:24.195Z,71.41
2016-06-26T02:08:24.411Z,71.31
2016-06-26T02:09:24.211Z,71.6
2016-06-26T02:10:24.197Z,71.22
2016-06-26T02:11:24.194Z,71.22
2016-06-26T02:12:24.177Z,71.31
2016-06-26T02:13:24.199Z,71.22
2016-06-26T02:14:24.194Z,71.22
2016-06-26T02:15:24.189Z,71.41
2016-06-26T02:16:24.393Z,71.31
2016-06-26T02:17:24.214Z,71.31
2016-06-26T02:18:24.184Z,71.31
2016-06-26T02:19:24.191Z,71.5
2016-06-26T02:20:24.185Z,71.5
2016-06-26T02:21:24.182Z,71.41
2016-06-26T02:22:24.186Z,71.5
2016-06-26T02:23:24.182Z,71.31
2016-06-26T02:24:24.186Z,71.31
2016-06-26T02:25:24.190Z,71.6
2016-06-26T02:26:24.176Z,71.7
2016-06-26T02:27:24.187Z,71.6
2016-06-26T02:28:24.178Z,71.6
2016-06-26T02:29:24.170Z,71.22
2016-06-26T02:30:24.170Z,71.5
2016-06-26T02:31:24.170Z,71.5
2016-06-26T02:32:24.174Z,71.5
2016-06-26T02:33:24.179Z,71.12
2016-06-26T02:34:24.211Z,71.5
2016-06-26T02:35:24.170Z,71.5
2016-06-26T02:36:24.366Z,71.6
2016-06-26T02:37:24.157Z,71.5
2016-06-26T02:38:24.174Z,71.5
2016-06-26T02:39:24.363Z,71.47
2016-06-26T02:40:24.176Z,71.12
2016-06-26T02:41:24.161Z,71.31
2016-06-26T02:42:24.162Z,70.92
2016-06-26T02:43:24.165Z,71.41
2016-06-26T02:44:24.176Z,71.12
2016-06-26T02:45:24.157Z,71.31
2016-06-26T02:46:24.157Z,70.92
2016-06-26T02:47:24.163Z,71.08
2016-06-26T02:48:24.148Z,71.18
2016-06-26T02:49:24.153Z,71.12
2016-06-26T02:50:24.157Z,71.08
2016-06-26T02:51:24.182Z,70.89
2016-06-26T02:52:24.147Z,71.08
2016-06-26T02:53:24.143Z,71.02
2016-06-26T02:54:24.150Z,70.89
2016-06-26T02:55:24.339Z,70.79
2016-06-26T02:56:24.157Z,71.47
2016-06-26T02:57:24.150Z,71.37
2016-06-26T02:58:24.138Z,71.6
2016-06-26T02:59:24.142Z,71.02
2016-06-26T03:00:24.148Z,70.98
2016-06-26T03:01:24.137Z,71.08
2016-06-26T03:02:24.141Z,71.08
2016-06-26T03:03:24.143Z,70.98
2016-06-26T03:04:24.141Z,70.98
2016-06-26T03:05:24.119Z,71.08
2016-06-26T03:06:24.136Z,71.08
2016-06-26T03:07:24.129Z,71.08
2016-06-26T03:08:24.134Z,71.08
2016-06-26T03:09:24.157Z,70.98
2016-06-26T03:10:24.131Z,71.18
2016-06-26T03:11:24.141Z,71.08
2016-06-26T03:12:24.134Z,70.98
2016-06-26T03:13:24.118Z,71.18
2016-06-26T03:14:24.119Z,71.08
2016-06-26T03:15:24.117Z,71.08
2016-06-26T03:16:24.123Z,70.98
2016-06-26T03:17:24.113Z,71.08
2016-06-26T03:18:24.154Z,70.98
2016-06-26T03:19:24.115Z,70.89
2016-06-26T03:20:24.366Z,70.89
2016-06-26T03:21:24.122Z,70.89
2016-06-26T03:22:24.112Z,71.28
2016-06-26T03:23:24.105Z,70.89
2016-06-26T03:24:24.114Z,70.98
2016-06-26T03:25:24.110Z,70.89
2016-06-26T03:26:24.109Z,70.89
2016-06-26T03:27:24.305Z,70.79
2016-06-26T03:28:24.117Z,70.89
2016-06-26T03:29:24.102Z,70.98
2016-06-26T03:30:24.098Z,71.08
2016-06-26T03:31:24.101Z,70.98
2016-06-26T03:32:24.098Z,71.08
2016-06-26T03:33:24.099Z,70.98
2016-06-26T03:34:24.104Z,71.08
2016-06-26T03:35:24.105Z,70.98
2016-06-26T03:36:24.098Z,70.98
2016-06-26T03:37:24.099Z,70.98
2016-06-26T03:38:24.098Z,71.08
2016-06-26T03:39:24.101Z,71.08
2016-06-26T03:40:24.090Z,71.28
2016-06-26T03:41:24.095Z,71.08
2016-06-26T03:42:24.089Z,71.18
2016-06-26T03:43:24.078Z,70.98
2016-06-26T03:44:24.084Z,71.18
2016-06-26T03:45:24.085Z,71.28
2016-06-26T03:46:24.086Z,71.18
2016-06-26T03:47:24.085Z,70.98
2016-06-26T03:48:24.100Z,71.08
2016-06-26T03:49:24.080Z,71.28
2016-06-26T03:50:24.287Z,71.08
2016-06-26T03:51:24.073Z,70.98
2016-06-26T03:52:24.074Z,70.98
2016-06-26T03:53:24.073Z,71.28
2016-06-26T03:54:24.071Z,71.18
2016-06-26T03:55:24.071Z,71.08
2016-06-26T03:56:24.265Z,70.79
2016-06-26T03:57:24.074Z,70.79
2016-06-26T03:58:24.062Z,70.95
2016-06-26T03:59:24.065Z,70.79
2016-06-26T04:00:24.069Z,70.66
2016-06-26T04:01:24.061Z,70.6
2016-06-26T04:02:24.081Z,70.66
2016-06-26T04:03:24.269Z,70.79
2016-06-26T04:04:24.057Z,70.79
2016-06-26T04:05:24.053Z,70.7
2016-06-26T04:06:24.052Z,70.98
2016-06-26T04:07:24.049Z,70.79
2016-06-26T04:08:24.055Z,70.7
2016-06-26T04:09:24.055Z,70.89
2016-06-26T04:10:24.054Z,70.95
2016-06-26T04:11:24.046Z,71.28
2016-06-26T04:12:24.046Z,71.04
2016-06-26T04:13:24.042Z,70.95
2016-06-26T04:14:24.040Z,70.47
2016-06-26T04:15:24.037Z,70.76
2016-06-26T04:16:24.037Z,70.47
2016-06-26T04:17:24.032Z,70.66
2016-06-26T04:18:24.036Z,70.86
2016-06-26T04:19:24.067Z,70.66
2016-06-26T04:20:24.043Z,70.76
2016-06-26T04:21:24.037Z,70.86
2016-06-26T04:22:24.035Z,70.86
2016-06-26T04:23:24.030Z,70.76
2016-06-26T04:24:24.027Z,70.56
2016-06-26T04:25:24.030Z,70.56
2016-06-26T04:26:24.036Z,70.86
2016-06-26T04:27:24.041Z,70.86
2016-06-26T04:28:24.030Z,70.86
2016-06-26T04:29:24.035Z,70.86
2016-06-26T04:30:24.022Z,70.86
2016-06-26T04:31:24.019Z,70.86
2016-06-26T04:32:24.019Z,70.86
2016-06-26T04:33:24.029Z,70.86
2016-06-26T04:34:24.013Z,70.76
2016-06-26T04:35:24.059Z,70.76
2016-06-26T04:36:24.018Z,70.86
2016-06-26T04:37:24.009Z,70.76
2016-06-26T04:38:24.042Z,70.66
2016-06-26T04:39:24.013Z,70.66
2016-06-26T04:40:24.226Z,70.56
2016-06-26T04:41:24.010Z,70.66
2016-06-26T04:42:24.007Z,70.86
2016-06-26T04:43:24.011Z,70.86
2016-06-26T04:44:24.012Z,70.76
2016-06-26T04:45:24.004Z,70.76
2016-06-26T04:46:24.005Z,70.47
2016-06-26T04:47:24.226Z,70.76
2016-06-26T04:48:24.002Z,70.76
2016-06-26T04:49:24.001Z,70.95
2016-06-26T04:50:24.008Z,70.86
2016-06-26T04:51:24.003Z,70.66
2016-06-26T04:52:23.991Z,70.66
2016-06-26T04:53:23.995Z,70.76
2016-06-26T04:54:23.995Z,70.86
2016-06-26T04:55:24.020Z,70.86
2016-06-26T04:56:23.981Z,70.76
2016-06-26T04:57:23.980Z,70.76
2016-06-26T04:58:23.986Z,70.76
2016-06-26T04:59:23.995Z,70.76
2016-06-26T05:00:23.978Z,70.86
2016-06-26T05:01:23.981Z,70.76
2016-06-26T05:02:23.973Z,70.76
2016-06-26T05:03:23.971Z,70.76
2016-06-26T05:04:24.173Z,70.76
2016-06-26T05:05:23.979Z,70.76
2016-06-26T05:06:24.169Z,70.66
2016-06-26T05:07:23.962Z,70.66
2016-06-26T05:08:23.982Z,70.86
2016-06-26T05:09:23.960Z,70.86
2016-06-26T05:10:23.973Z,70.76
2016-06-26T05:11:24.161Z,70.86
2016-06-26T05:12:23.983Z,70.95
2016-06-26T05:13:23.972Z,70.86
2016-06-26T05:14:23.960Z,70.76
2016-06-26T05:15:23.964Z,70.95
2016-06-26T05:16:23.958Z,70.95
2016-06-26T05:17:23.968Z,70.66
2016-06-26T05:18:23.944Z,70.76
2016-06-26T05:19:23.979Z,71.14
2016-06-26T05:20:23.950Z,70.95
2016-06-26T05:21:23.961Z,70.95
2016-06-26T05:22:23.948Z,70.86
2016-06-26T05:23:23.945Z,70.86
2016-06-26T05:24:24.175Z,71.04
2016-06-26T05:25:23.937Z,70.95
2016-06-26T05:26:23.943Z,71.04
2016-06-26T05:27:23.931Z,70.56
2016-06-26T05:28:23.939Z,70.86
2016-06-26T05:29:23.927Z,71.14
2016-06-26T05:30:23.961Z,71.04
2016-06-26T05:31:23.932Z,70.86
2016-06-26T05:32:23.924Z,70.56
2016-06-26T05:33:23.935Z,71.04
2016-06-26T05:34:23.919Z,70.56
2016-06-26T05:35:23.924Z,70.76
2016-06-26T05:36:23.925Z,70.95
2016-06-26T05:37:23.919Z,70.56
2016-06-26T05:38:23.923Z,70.56
2016-06-26T05:39:24.117Z,70.47
2016-06-26T05:40:23.913Z,70.37
2016-06-26T05:41:23.918Z,70.09
2016-06-26T05:42:23.921Z,70.09
2016-06-26T05:43:23.935Z,70.28
2016-06-26T05:44:23.905Z,70.28
2016-06-26T05:45:23.909Z,70.28
2016-06-26T05:46:23.906Z,70.18
2016-06-26T05:47:23.901Z,70.09
2016-06-26T05:48:23.897Z,70.18
2016-06-26T05:49:23.902Z,70.28
2016-06-26T05:50:23.891Z,70.47
2016-06-26T05:51:23.898Z,70.28
2016-06-26T05:52:23.902Z,70.47
2016-06-26T05:53:23.896Z,70.28
2016-06-26T05:54:23.921Z,70.47
2016-06-26T05:55:23.910Z,70.09
2016-06-26T05:56:24.089Z,70.53
2016-06-26T05:57:24.089Z,70.09
2016-06-26T05:58:23.888Z,70.47
2016-06-26T05:59:23.884Z,70.47
2016-06-26T06:00:23.879Z,70.47
2016-06-26T06:01:23.875Z,70.47
2016-06-26T06:02:23.877Z,70.47
2016-06-26T06:03:23.873Z,70.37
2016-06-26T06:04:23.874Z,70.28
2016-06-26T06:05:24.077Z,70.18
2016-06-26T06:06:23.873Z,70.28
2016-06-26T06:07:23.870Z,70.47
2016-06-26T06:08:23.870Z,70.37
2016-06-26T06:09:23.862Z,70.47
2016-06-26T06:10:23.872Z,70.28
2016-06-26T06:11:23.857Z,70.28
2016-06-26T06:12:23.873Z,70.37
2016-06-26T06:13:24.059Z,70.37
2016-06-26T06:14:23.861Z,70.47
2016-06-26T06:15:23.854Z,70.37
2016-06-26T06:16:24.070Z,70.47
2016-06-26T06:17:23.850Z,70.18
2016-06-26T06:18:24.069Z,70.18
2016-06-26T06:19:23.858Z,70.09
2016-06-26T06:20:23.849Z,70.18
2016-06-26T06:21:23.841Z,70.18
2016-06-26T06:22:24.051Z,70.47
2016-06-26T06:23:23.854Z,70.47
2016-06-26T06:24:23.840Z,70.56
2016-06-26T06:25:23.850Z,70.86
2016-06-26T06:26:23.852Z,70.47
2016-06-26T06:27:24.039Z,70.56
2016-06-26T06:28:23.841Z,70.56
2016-06-26T06:29:23.838Z,70.56
2016-06-26T06:30:24.026Z,70.09
2016-06-26T06:31:24.027Z,70.09
2016-06-26T06:32:23.834Z,70.09
2016-06-26T06:33:23.848Z,70.18
2016-06-26T06:34:23.826Z,70.18
2016-06-26T06:35:24.088Z,70.56
2016-06-26T06:36:23.824Z,70.18
2016-06-26T06:37:23.815Z,70.18
2016-06-26T06:38:23.822Z,70.37
2016-06-26T06:39:23.814Z,70.56
2016-06-26T06:40:23.819Z,70.28
2016-06-26T06:41:23.810Z,70.18
2016-06-26T06:42:23.818Z,70.28
2016-06-26T06:43:24.011Z,70.28
2016-06-26T06:44:23.812Z,70.37
2016-06-26T06:45:23.830Z,70.28
2016-06-26T06:46:23.800Z,70.47
2016-06-26T06:47:23.800Z,70.18
2016-06-26T06:48:23.809Z,70.56
2016-06-26T06:49:23.786Z,70.28
2016-06-26T06:50:23.792Z,70.28
2016-06-26T06:51:23.798Z,70.37
2016-06-26T06:52:23.785Z,70.28
2016-06-26T06:53:23.787Z,70.56
2016-06-26T06:54:23.794Z,70.47
2016-06-26T06:55:23.777Z,70.56
2016-06-26T06:56:23.779Z,70.56
2016-06-26T06:57:23.782Z,70.28
2016-06-26T06:58:23.780Z,70.47
2016-06-26T06:59:23.979Z,70.47
2016-06-26T07:00:23.773Z,70.95
2016-06-26T07:01:23.773Z,70.56
2016-06-26T07:02:23.775Z,70.86
2016-06-26T07:03:23.776Z,70.95
2016-06-26T07:04:23.774Z,70.76
2016-06-26T07:05:23.764Z,70.95
2016-06-26T07:06:23.763Z,70.47
2016-06-26T07:07:23.757Z,70.56
2016-06-26T07:08:23.758Z,70.47
2016-06-26T07:09:23.758Z,70.47
2016-06-26T07:10:23.754Z,70.95
2016-06-26T07:11:23.760Z,70.56
2016-06-26T07:12:23.970Z,70.56
2016-06-26T07:13:23.755Z,70.47
2016-06-26T07:14:23.751Z,70.18
2016-06-26T07:15:23.752Z,70.47
2016-06-26T07:16:23.745Z,70.18
2016-06-26T07:17:23.751Z,70.18
2016-06-26T07:18:23.942Z,69.99
2016-06-26T07:19:23.763Z,69.99
2016-06-26T07:20:23.734Z,70.37
2016-06-26T07:21:23.743Z,69.99
2016-06-26T07:22:23.741Z,70.09
2016-06-26T07:23:23.731Z,70.28
2016-06-26T07:24:23.733Z,70.47
2016-06-26T07:25:23.729Z,70.28
2016-06-26T07:26:23.730Z,70.47
2016-06-26T07:27:23.722Z,70.18
2016-06-26T07:28:23.725Z,70.28
2016-06-26T07:29:23.925Z,69.89
2016-06-26T07:30:23.721Z,69.79
2016-06-26T07:31:23.715Z,70.28
2016-06-26T07:32:23.718Z,69.99
2016-06-26T07:33:23.712Z,69.79
2016-06-26T07:34:23.740Z,69.89
2016-06-26T07:35:23.715Z,69.64
2016-06-26T07:36:23.922Z,70.02
2016-06-26T07:37:23.915Z,69.54
2016-06-26T07:38:23.701Z,69.6
2016-06-26T07:39:23.699Z,69.54
2016-06-26T07:40:23.910Z,69.79
2016-06-26T07:41:23.694Z,69.54
2016-06-26T07:42:23.700Z,69.83
2016-06-26T07:43:23.735Z,69.83
2016-06-26T07:44:23.708Z,69.83
2016-06-26T07:45:23.698Z,69.73
2016-06-26T07:46:23.709Z,69.93
2016-06-26T07:47:23.701Z,70.02
2016-06-26T07:48:23.691Z,69.54
2016-06-26T07:49:23.697Z,69.45
2016-06-26T07:50:23.690Z,69.64
2016-06-26T07:51:23.705Z,69.54
2016-06-26T07:52:23.685Z,69.73
2016-06-26T07:53:23.678Z,69.73
2016-06-26T07:54:23.687Z,69.93
2016-06-26T07:55:23.682Z,69.54
2016-06-26T07:56:23.679Z,69.54
2016-06-26T07:57:23.690Z,69.45
2016-06-26T07:58:23.689Z,69.25
2016-06-26T07:59:23.705Z,69.45
2016-06-26T08:00:23.673Z,69.45
2016-06-26T08:01:23.668Z,69.54
2016-06-26T08:02:23.687Z,69.54
2016-06-26T08:03:23.667Z,69.45
2016-06-26T08:04:23.687Z,69.54
2016-06-26T08:05:23.664Z,69.45
2016-06-26T08:06:23.659Z,69.64
2016-06-26T08:07:23.663Z,69.54
2016-06-26T08:08:23.653Z,69.45
2016-06-26T08:09:23.658Z,69.35
2016-06-26T08:10:23.651Z,69.25
2016-06-26T08:11:23.659Z,69.35
2016-06-26T08:12:23.682Z,69.06
2016-06-26T08:13:23.649Z,69.25
2016-06-26T08:14:23.644Z,69.35
2016-06-26T08:15:23.658Z,69.25
2016-06-26T08:16:23.639Z,69.25
2016-06-26T08:17:23.648Z,69.25
2016-06-26T08:18:23.638Z,69.25
2016-06-26T08:19:23.632Z,68.87
2016-06-26T08:20:23.861Z,69.35
2016-06-26T08:21:23.640Z,69.25
2016-06-26T08:22:23.620Z,69.15
2016-06-26T08:23:23.631Z,69.15
2016-06-26T08:24:23.625Z,69.06
2016-06-26T08:25:23.618Z,69.15
2016-06-26T08:26:23.627Z,69.06
2016-06-26T08:27:23.630Z,69.25
2016-06-26T08:28:23.611Z,69.25
2016-06-26T08:29:23.607Z,69.06
2016-06-26T08:30:23.620Z,69.25
2016-06-26T08:31:23.614Z,69.35
2016-06-26T08:32:23.611Z,69.35
2016-06-26T08:33:23.619Z,69.06
2016-06-26T08:34:23.607Z,69.25
2016-06-26T08:35:23.609Z,69.25
2016-06-26T08:36:23.615Z,69.06
2016-06-26T08:37:23.608Z,69.35
2016-06-26T08:38:23.595Z,69.25
2016-06-26T08:39:23.598Z,69.25
2016-06-26T08:40:23.595Z,68.96
2016-06-26T08:41:23.597Z,69.25
2016-06-26T08:42:23.607Z,69.15
2016-06-26T08:43:23.803Z,69.45
2016-06-26T08:44:23.598Z,69.15
2016-06-26T08:45:23.590Z,69.25
2016-06-26T08:46:23.791Z,69.15
2016-06-26T08:47:23.594Z,69.35
2016-06-26T08:48:23.583Z,69.35
2016-06-26T08:49:23.583Z,68.96
2016-06-26T08:50:23.583Z,69.06
2016-06-26T08:51:23.579Z,68.96
2016-06-26T08:52:23.577Z,68.77
2016-06-26T08:53:23.595Z,69.06
2016-06-26T08:54:23.579Z,68.96
2016-06-26T08:55:23.570Z,69.25
2016-06-26T08:56:23.566Z,69.15
2016-06-26T08:57:23.769Z,69.25
2016-06-26T08:58:23.578Z,68.77
2016-06-26T08:59:23.583Z,68.77
2016-06-26T09:00:23.570Z,68.77
2016-06-26T09:01:23.559Z,68.96
2016-06-26T09:02:23.573Z,68.87
2016-06-26T09:03:23.555Z,68.96
2016-06-26T09:04:23.562Z,68.96
2016-06-26T09:05:23.555Z,68.48
2016-06-26T09:06:23.561Z,68.58
2016-06-26T09:07:23.550Z,68.68
2016-06-26T09:08:23.555Z,68.58
2016-06-26T09:09:23.751Z,68.58
2016-06-26T09:10:23.575Z,68.77
2016-06-26T09:11:23.750Z,68.68
2016-06-26T09:12:23.537Z,68.68
2016-06-26T09:13:23.543Z,69.25
2016-06-26T09:14:23.547Z,68.68
2016-06-26T09:15:23.759Z,68.48
2016-06-26T09:16:23.545Z,68.58
2016-06-26T09:17:23.534Z,68.58
2016-06-26T09:18:23.536Z,68.48
2016-06-26T09:19:23.532Z,68.58
2016-06-26T09:20:23.585Z,68.58
2016-06-26T09:21:23.529Z,68.58
2016-06-26T09:22:23.547Z,68.48
2016-06-26T09:23:23.525Z,68.68
2016-06-26T09:24:23.524Z,68.68
2016-06-26T09:25:23.526Z,68.77
2016-06-26T09:26:23.522Z,68.77
2016-06-26T09:27:23.530Z,68.38
2016-06-26T09:28:23.526Z,68.58
2016-06-26T09:29:23.533Z,68.48
2016-06-26T09:30:23.514Z,68.58
2016-06-26T09:31:23.515Z,68.29
2016-06-26T09:32:23.520Z,68.77
2016-06-26T09:33:23.526Z,68.58
2016-06-26T09:34:23.511Z,68.48
2016-06-26T09:35:23.518Z,68.48
2016-06-26T09:36:23.512Z,68.48
2016-06-26T09:37:23.512Z,68.68
2016-06-26T09:38:23.515Z,68.77
2016-06-26T09:39:23.514Z,68.68
2016-06-26T09:40:23.510Z,68.58
2016-06-26T09:41:23.505Z,68.58
2016-06-26T09:42:23.695Z,68.58
2016-06-26T09:43:23.507Z,68.68
2016-06-26T09:44:23.495Z,68.38
2016-06-26T09:45:23.491Z,68.58
2016-06-26T09:46:23.504Z,68.58
2016-06-26T09:47:23.510Z,68.58
2016-06-26T09:48:23.490Z,68.68
2016-06-26T09:49:23.487Z,68.58
2016-06-26T09:50:23.486Z,68.58
2016-06-26T09:51:23.495Z,68.48
2016-06-26T09:52:23.485Z,68.48
2016-06-26T09:53:23.477Z,68.68
2016-06-26T09:54:23.475Z,68.58
2016-06-26T09:55:23.483Z,68.68
2016-06-26T09:56:23.478Z,68.58
2016-06-26T09:57:23.486Z,68.58
2016-06-26T09:58:23.475Z,68.38
2016-06-26T09:59:23.465Z,68.58
2016-06-26T10:00:23.457Z,68.58
2016-06-26T10:01:23.463Z,68.29
2016-06-26T10:02:23.663Z,68
2016-06-26T10:03:23.481Z,68.29
2016-06-26T10:04:23.461Z,68
2016-06-26T10:05:23.663Z,68
2016-06-26T10:06:23.455Z,68
2016-06-26T10:07:23.462Z,67.9
2016-06-26T10:08:23.461Z,68.29
2016-06-26T10:09:23.451Z,68.29
2016-06-26T10:10:23.463Z,68.19
2016-06-26T10:11:23.447Z,68.38
2016-06-26T10:12:23.444Z,68.29
2016-06-26T10:13:23.445Z,68.29
2016-06-26T10:14:23.453Z,68.29
2016-06-26T10:15:23.439Z,68.29
2016-06-26T10:16:23.465Z,68.19
2016-06-26T10:17:23.660Z,68.1
2016-06-26T10:18:23.435Z,68.29
2016-06-26T10:19:23.435Z,68.19
2016-06-26T10:20:23.446Z,68.19
2016-06-26T10:21:23.440Z,68.1
2016-06-26T10:22:23.437Z,68.19
2016-06-26T10:23:23.440Z,68.1
2016-06-26T10:24:23.428Z,68.1
2016-06-26T10:25:23.437Z,68.19
2016-06-26T10:26:23.423Z,68.19
2016-06-26T10:27:23.456Z,68.19
2016-06-26T10:28:23.453Z,68.19
2016-06-26T10:29:23.432Z,68.29
2016-06-26T10:30:23.409Z,67.71
2016-06-26T10:31:23.440Z,67.61
2016-06-26T10:32:23.420Z,67.9
2016-06-26T10:33:23.620Z,68
2016-06-26T10:34:23.443Z,67.81
2016-06-26T10:35:23.417Z,67.9
2016-06-26T10:36:23.474Z,68.1
2016-06-26T10:37:23.409Z,67.81
2016-06-26T10:38:23.407Z,67.61
2016-06-26T10:39:23.402Z,67.61
2016-06-26T10:40:23.405Z,67.71
2016-06-26T10:41:23.439Z,67.52
2016-06-26T10:42:23.410Z,67.16
2016-06-26T10:43:23.396Z,67.07
2016-06-26T10:44:23.399Z,66.97
2016-06-26T10:45:23.401Z,67.36
2016-06-26T10:46:23.385Z,67.36
2016-06-26T10:47:23.390Z,67.16
2016-06-26T10:48:23.389Z,67.26
2016-06-26T10:49:23.390Z,67.65
2016-06-26T10:50:23.406Z,67.26
2016-06-26T10:51:23.380Z,67.26
2016-06-26T10:52:23.394Z,67.36
2016-06-26T10:53:23.379Z,67.55
2016-06-26T10:54:23.378Z,67.36
2016-06-26T10:55:23.373Z,67.36
2016-06-26T10:56:23.374Z,67.36
2016-06-26T10:57:23.378Z,67.26
2016-06-26T10:58:23.579Z,67.16
2016-06-26T10:59:23.379Z,67.55
2016-06-26T11:00:23.363Z,67.16
2016-06-26T11:01:23.366Z,67.16
2016-06-26T11:02:23.382Z,67.16
2016-06-26T11:03:23.369Z,67.16
2016-06-26T11:04:23.368Z,67.26
2016-06-26T11:05:23.351Z,67.26
2016-06-26T11:06:23.361Z,67.26
2016-06-26T11:07:23.369Z,67.36
2016-06-26T11:08:23.357Z,67.26
2016-06-26T11:09:23.371Z,67.36
2016-06-26T11:10:23.365Z,67.16
2016-06-26T11:11:23.353Z,66.88
2016-06-26T11:12:23.345Z,67.46
2016-06-26T11:13:23.398Z,67.26
2016-06-26T11:14:23.346Z,67.07
2016-06-26T11:15:23.349Z,67.26
2016-06-26T11:16:23.350Z,67.07
2016-06-26T11:17:23.344Z,66.78
2016-06-26T11:18:23.348Z,66.88
2016-06-26T11:19:23.342Z,66.88
2016-06-26T11:20:23.343Z,66.78
2016-06-26T11:21:23.336Z,66.59
2016-06-26T11:22:23.333Z,66.97
2016-06-26T11:23:23.333Z,66.78
2016-06-26T11:24:23.343Z,66.78
2016-06-26T11:25:23.323Z,66.69
2016-06-26T11:26:23.337Z,66.97
2016-06-26T11:27:23.332Z,66.78
2016-06-26T11:28:23.331Z,66.88
2016-06-26T11:29:23.325Z,66.88
2016-06-26T11:30:23.317Z,66.88
2016-06-26T11:31:23.315Z,66.49
2016-06-26T11:32:23.320Z,66.78
2016-06-26T11:33:23.518Z,66.78
2016-06-26T11:34:23.311Z,66.69
2016-06-26T11:35:23.323Z,66.69
2016-06-26T11:36:23.331Z,66.49
2016-06-26T11:37:23.516Z,66.59
2016-06-26T11:38:23.307Z,66.69
2016-06-26T11:39:23.308Z,66.2
2016-06-26T11:40:23.312Z,66.49
2016-06-26T11:41:23.312Z,66.3
2016-06-26T11:42:23.302Z,66.97
2016-06-26T11:43:23.311Z,66.3
2016-06-26T11:44:23.303Z,66.39
2016-06-26T11:45:23.507Z,66.3
2016-06-26T11:46:23.303Z,66.59
2016-06-26T11:47:23.493Z,66.11
2016-06-26T11:48:23.505Z,66.39
2016-06-26T11:49:23.285Z,66.33
2016-06-26T11:50:23.292Z,66.3
2016-06-26T11:51:23.291Z,66.24
2016-06-26T11:52:23.293Z,66.43
2016-06-26T11:53:23.287Z,66.3
2016-06-26T11:54:23.293Z,66.33
2016-06-26T11:55:23.277Z,66.52
2016-06-26T11:56:23.288Z,66.14
2016-06-26T11:57:23.298Z,66.04
2016-06-26T11:58:23.278Z,66.14
2016-06-26T11:59:23.522Z,66.43
2016-06-26T12:00:23.287Z,66.43
2016-06-26T12:01:23.281Z,65.95
2016-06-26T12:02:23.272Z,66.24
2016-06-26T12:03:23.286Z,65.95
2016-06-26T12:04:23.469Z,65.95
2016-06-26T12:05:23.271Z,66.33
2016-06-26T12:06:23.271Z,66.04
2016-06-26T12:07:23.273Z,66.33
2016-06-26T12:08:23.257Z,65.85
2016-06-26T12:09:23.270Z,66.14
2016-06-26T12:10:23.285Z,66.14
2016-06-26T12:11:23.262Z,66.24
2016-06-26T12:12:23.264Z,65.95
2016-06-26T12:13:23.287Z,65.85
2016-06-26T12:14:23.267Z,65.75
2016-06-26T12:15:23.266Z,65.85
2016-06-26T12:16:23.253Z,65.85
2016-06-26T12:17:23.245Z,65.85
2016-06-26T12:18:23.246Z,65.95
2016-06-26T12:19:23.252Z,65.85
2016-06-26T12:20:23.255Z,65.95
2016-06-26T12:21:23.265Z,65.85
2016-06-26T12:22:23.250Z,66.24
2016-06-26T12:23:23.246Z,65.95
2016-06-26T12:24:23.243Z,65.85
2016-06-26T12:25:23.243Z,65.75
2016-06-26T12:26:23.647Z,65.85
2016-06-26T12:27:23.237Z,65.85
2016-06-26T12:28:23.239Z,65.95
2016-06-26T12:29:23.241Z,65.85
2016-06-26T12:30:23.245Z,65.66
2016-06-26T12:31:23.235Z,65.95
2016-06-26T12:32:23.229Z,65.85
2016-06-26T12:33:23.232Z,66.04
2016-06-26T12:34:23.231Z,66.04
2016-06-26T12:35:23.257Z,65.75
2016-06-26T12:36:23.239Z,65.56
2016-06-26T12:37:23.224Z,65.85
2016-06-26T12:38:23.438Z,66.43
2016-06-26T12:39:23.225Z,65.85
2016-06-26T12:40:23.228Z,65.75
2016-06-26T12:41:23.217Z,65.85
2016-06-26T12:42:23.432Z,65.85
2016-06-26T12:43:23.231Z,65.85
2016-06-26T12:44:23.449Z,65.85
2016-06-26T12:45:23.226Z,65.95
2016-06-26T12:46:23.215Z,65.75
2016-06-26T12:47:23.208Z,65.66
2016-06-26T12:48:23.222Z,65.95
2016-06-26T12:49:23.205Z,65.95
2016-06-26T12:50:23.218Z,65.95
2016-06-26T12:51:23.213Z,65.75
2016-06-26T12:52:23.214Z,65.85
2016-06-26T12:53:23.196Z,65.85
2016-06-26T12:54:23.210Z,65.75